aviador You're here:

KIPJ Decoded Metar

LINCOLNTON in NC, USA
Report Time2017-08-06 08:10:00
UTC Time2017-08-23 00:41:35
Flight Rules Old
Wind010° at 03 kt
W.Decomp.*RWY 05: 2.5 kt HW 1.7 kt LCW
W.Rank010° ranks 15
Current wind is below 010° avg. (4.8)
Visibility9999 m
Phenomena:N/A
Clouds:N/A
Expected CloudBase > 800 ft AGL from Temp-Dew spread
CeilingNone
Temp17°C (ISA +4)
Dew Point15°C (88% RH)
QNH1019 hPa
Density Alt1,345 ft
Elevation876 ft
Report Wrong Elevation
Raw Report
KIPJ 060810Z AUTO 01003KT 10SM CLR 17/15 A3009 RMK AO2
T01740145=

Extra information for KIPJ:More info

Metar Taf Metar & Taf Last 4 Metars F.Rules Stats Wind Profile Meteogram Temp Stats Airport Information Weather charts Add Link Nearby VenuesMetar ALERT Operation Metar Decoded Social comments

AIRNAV info for KIPJ